Time;durP1;ratioP1;P1;durP2;ratioP2;P2;SDS_P1;SDS_P2;PMS_P1;PMS_P2;Temp;Humidity;BMP_temperature;BMP_pressure;BME280_temperature;BME280_humidity;BME280_pressure;Samples;Min_cycle;Max_cycle;Signal;HPM_P1;HPM_P2
2022/03/08 00:01:00;;;;;;;;;;;1.70;99.90;;;;;;5114585;27;20292;-78
2022/03/08 00:03:26;;;;;;;;;;;1.70;99.90;;;;;;5112652;28;19938;-79
2022/03/08 00:05:52;;;;;;;;;;;1.70;99.90;;;;;;5096758;28;19923;-78
2022/03/08 00:08:17;;;;;;;;;;;1.70;99.90;;;;;;5095680;28;20282;-78
2022/03/08 00:10:43;;;;;;;;;;;1.60;99.90;;;;;;5103779;28;19924;-78
2022/03/08 00:13:09;;;;;;;;;;;1.60;99.90;;;;;;5125922;27;20380;-78
2022/03/08 00:15:35;;;;;;;;;;;1.60;99.90;;;;;;5124703;27;19924;-78
2022/03/08 00:18:00;;;;;;;;;;;1.60;99.90;;;;;;5113595;28;19927;-78
2022/03/08 00:20:26;;;;;;;;;;;1.50;99.90;;;;;;5097915;28;20503;-78
2022/03/08 00:22:52;;;;;;;;;;;1.50;99.90;;;;;;5121449;27;19973;-78
2022/03/08 00:25:18;;;;;;;;;;;1.40;99.90;;;;;;5119666;27;19924;-78
2022/03/08 00:27:46;;;;;;;;;;;1.40;99.90;;;;;;5130627;27;19923;-77
2022/03/08 00:30:14;;;;;;;;;;;1.30;99.90;;;;;;5113969;27;19928;-78
2022/03/08 00:32:39;;;;;;;;;;;1.20;99.90;;;;;;5126815;27;19924;-78
2022/03/08 00:35:05;;;;;;;;;;;1.20;99.90;;;;;;5096115;28;19972;-78
2022/03/08 00:37:31;;;;;;;;;;;1.20;99.90;;;;;;5147513;27;19963;-78
2022/03/08 00:39:56;;;;;;;;;;;1.20;99.90;;;;;;5118007;27;19923;-77
2022/03/08 00:42:22;;;;;;;;;;;1.20;99.90;;;;;;5127329;27;19927;-81
2022/03/08 00:44:48;;;;;;;;;;;1.20;99.90;;;;;;5105197;28;19923;-77
2022/03/08 00:47:13;;;;;;;;;;;1.20;99.90;;;;;;5101712;28;19935;-77
2022/03/08 00:49:39;;;;;;;;;;;1.20;99.90;;;;;;5112262;27;19946;-78
2022/03/08 00:52:06;;;;;;;;;;;1.20;99.90;;;;;;5111027;28;19935;-86
2022/03/08 00:54:32;;;;;;;;;;;1.10;99.90;;;;;;5106495;28;19933;-77
2022/03/08 00:56:57;;;;;;;;;;;1.00;99.90;;;;;;5120666;27;20002;-78
2022/03/08 00:59:23;;;;;;;;;;;1.00;99.90;;;;;;5118653;27;19932;-78
2022/03/08 01:01:49;;;;;;;;;;;1.00;99.90;;;;;;5112183;28;19924;-78
2022/03/08 01:04:15;;;;;;;;;;;0.90;99.90;;;;;;5147137;27;20284;-80
2022/03/08 01:06:41;;;;;;;;;;;0.90;99.90;;;;;;5112532;28;19971;-79
2022/03/08 01:09:07;;;;;;;;;;;0.90;99.90;;;;;;5125457;27;20379;-78
2022/03/08 01:11:32;;;;;;;;;;;0.80;99.90;;;;;;5119628;27;20006;-78
2022/03/08 01:13:58;;;;;;;;;;;0.90;99.90;;;;;;5095792;28;20026;-78
2022/03/08 01:16:24;;;;;;;;;;;0.80;99.90;;;;;;5112337;28;19931;-78
2022/03/08 01:18:50;;;;;;;;;;;0.80;99.90;;;;;;5112914;28;19923;-78
2022/03/08 01:21:16;;;;;;;;;;;0.80;99.90;;;;;;5113134;28;19924;-78
2022/03/08 01:23:42;;;;;;;;;;;0.70;99.90;;;;;;5112823;28;19930;-78
2022/03/08 01:26:08;;;;;;;;;;;0.70;99.90;;;;;;5095488;28;19924;-78
2022/03/08 01:28:34;;;;;;;;;;;0.70;99.90;;;;;;5113645;28;19935;-78
2022/03/08 01:31:00;;;;;;;;;;;0.70;99.90;;;;;;5113017;28;20375;-78
2022/03/08 01:33:26;;;;;;;;;;;0.70;99.90;;;;;;5095502;28;19963;-78
2022/03/08 01:35:51;;;;;;;;;;;0.60;99.90;;;;;;5095834;28;19990;-78
2022/03/08 01:38:17;;;;;;;;;;;0.60;99.90;;;;;;5110541;28;19924;-79
2022/03/08 01:40:43;;;;;;;;;;;0.60;99.90;;;;;;5091140;28;19951;-78
2022/03/08 01:43:08;;;;;;;;;;;0.60;99.90;;;;;;5108866;28;19934;-80
2022/03/08 01:45:34;;;;;;;;;;;0.70;99.90;;;;;;5145998;27;20393;-79
2022/03/08 01:48:00;;;;;;;;;;;0.60;99.90;;;;;;5094979;28;19931;-78
2022/03/08 01:50:26;;;;;;;;;;;0.60;99.90;;;;;;5112627;28;19923;-78
2022/03/08 01:52:52;;;;;;;;;;;0.60;99.90;;;;;;5129515;28;19924;-78
2022/03/08 01:55:17;;;;;;;;;;;0.70;99.90;;;;;;5127391;28;20281;-78
2022/03/08 01:57:44;;;;;;;;;;;0.60;99.90;;;;;;5112425;28;20011;-78
2022/03/08 02:00:11;;;;;;;;;;;0.70;99.90;;;;;;5128883;28;19927;-78
2022/03/08 02:02:37;;;;;;;;;;;0.60;99.90;;;;;;5111888;28;19923;-80
2022/03/08 02:05:03;;;;;;;;;;;0.70;99.90;;;;;;5129440;28;19970;-78
2022/03/08 02:07:29;;;;;;;;;;;0.60;99.90;;;;;;5103994;27;19967;-78
2022/03/08 02:09:54;;;;;;;;;;;0.60;99.90;;;;;;5151825;27;19998;-77
2022/03/08 02:12:20;;;;;;;;;;;0.70;99.90;;;;;;5106462;28;19932;-78
2022/03/08 02:14:45;;;;;;;;;;;0.70;99.90;;;;;;5115347;27;19924;-78
2022/03/08 02:17:11;;;;;;;;;;;0.70;99.90;;;;;;5134927;27;19924;-78
2022/03/08 02:19:37;;;;;;;;;;;0.60;99.90;;;;;;5120795;27;19931;-78
2022/03/08 02:22:02;;;;;;;;;;;0.60;99.90;;;;;;5096022;28;19973;-78
2022/03/08 02:24:28;;;;;;;;;;;0.60;99.90;;;;;;5115876;28;19928;-77
2022/03/08 02:26:54;;;;;;;;;;;0.60;99.90;;;;;;5114941;28;19935;-80
2022/03/08 02:29:19;;;;;;;;;;;0.50;99.90;;;;;;5104316;28;19923;-78
2022/03/08 02:31:47;;;;;;;;;;;0.60;99.90;;;;;;5149107;27;20406;-78
2022/03/08 02:34:14;;;;;;;;;;;0.50;99.90;;;;;;5114685;28;20303;-77
2022/03/08 02:36:41;;;;;;;;;;;0.50;99.90;;;;;;5114364;28;19923;-78
2022/03/08 02:39:07;;;;;;;;;;;0.50;99.90;;;;;;5115648;28;19980;-77
2022/03/08 02:41:32;;;;;;;;;;;0.50;99.90;;;;;;5116544;28;20014;-78
2022/03/08 02:43:58;;;;;;;;;;;0.40;99.90;;;;;;5132651;27;20018;-77
2022/03/08 02:46:24;;;;;;;;;;;0.40;99.90;;;;;;5115771;28;19924;-79
2022/03/08 02:48:49;;;;;;;;;;;0.40;99.90;;;;;;5098554;28;19924;-78
2022/03/08 02:51:17;;;;;;;;;;;0.40;99.90;;;;;;5115926;28;19949;-78
2022/03/08 02:53:43;;;;;;;;;;;0.30;99.90;;;;;;5081161;28;20453;-76
2022/03/08 02:56:08;;;;;;;;;;;0.20;99.90;;;;;;5115235;28;19999;-78
2022/03/08 02:58:34;;;;;;;;;;;0.20;99.90;;;;;;5132356;27;20280;-78
2022/03/08 03:01:00;;;;;;;;;;;0.30;99.90;;;;;;5115262;28;19994;-78
2022/03/08 03:03:25;;;;;;;;;;;0.20;99.90;;;;;;5114793;28;19924;-78
2022/03/08 03:05:51;;;;;;;;;;;0.10;99.90;;;;;;5114986;28;19923;-78
2022/03/08 03:08:16;;;;;;;;;;;0.10;99.90;;;;;;5132348;27;19978;-78
2022/03/08 03:10:42;;;;;;;;;;;0.10;99.90;;;;;;5131875;27;20371;-77
2022/03/08 03:13:07;;;;;;;;;;;0.10;99.90;;;;;;5114503;28;19928;-78
2022/03/08 03:15:33;;;;;;;;;;;0.00;99.90;;;;;;5131649;27;19977;-78
2022/03/08 03:17:59;;;;;;;;;;;0.10;99.90;;;;;;5114326;28;19930;-78
2022/03/08 03:20:26;;;;;;;;;;;0.10;99.90;;;;;;5094261;28;19924;-77
2022/03/08 03:22:52;;;;;;;;;;;0.10;99.90;;;;;;5109449;28;19930;-78
2022/03/08 03:25:18;;;;;;;;;;;0.00;99.90;;;;;;5114876;28;19924;-77
2022/03/08 03:27:44;;;;;;;;;;;0.00;99.90;;;;;;5097790;28;19924;-77
2022/03/08 03:30:11;;;;;;;;;;;0.00;99.90;;;;;;5121124;27;20419;-77
2022/03/08 03:32:37;;;;;;;;;;;0.00;99.90;;;;;;5135199;27;19923;-77
2022/03/08 03:35:03;;;;;;;;;;;0.00;99.90;;;;;;5135176;27;20362;-77
2022/03/08 03:37:28;;;;;;;;;;;0.00;99.90;;;;;;5127330;27;20014;-78
2022/03/08 03:39:54;;;;;;;;;;;0.00;99.90;;;;;;5083290;27;19932;-77
2022/03/08 03:42:20;;;;;;;;;;;0.00;99.90;;;;;;5118098;27;19923;-77
2022/03/08 03:44:45;;;;;;;;;;;0.00;99.90;;;;;;5117117;27;20352;-77
2022/03/08 03:47:11;;;;;;;;;;;0.00;99.90;;;;;;5110519;28;19931;-80
2022/03/08 03:49:37;;;;;;;;;;;0.10;99.90;;;;;;5097449;28;19931;-80
2022/03/08 03:52:02;;;;;;;;;;;0.00;99.90;;;;;;5097645;28;19928;-77
2022/03/08 03:54:28;;;;;;;;;;;-0.10;99.90;;;;;;5109316;27;20002;-77
2022/03/08 03:56:54;;;;;;;;;;;0.00;99.90;;;;;;5114273;28;20378;-77
2022/03/08 03:59:20;;;;;;;;;;;0.00;99.90;;;;;;5131930;27;19946;-78
2022/03/08 04:01:45;;;;;;;;;;;0.00;99.90;;;;;;5130249;27;19927;-86
2022/03/08 04:04:11;;;;;;;;;;;0.00;99.90;;;;;;5089512;28;19992;-77
2022/03/08 04:06:36;;;;;;;;;;;0.00;99.90;;;;;;5082288;27;20014;-78
2022/03/08 04:09:03;;;;;;;;;;;0.00;99.90;;;;;;5130676;27;20003;-77
2022/03/08 04:11:29;;;;;;;;;;;0.00;99.90;;;;;;5113971;28;19923;-77
2022/03/08 04:13:54;;;;;;;;;;;0.00;99.90;;;;;;5130859;27;19930;-77
2022/03/08 04:16:20;;;;;;;;;;;-0.10;99.90;;;;;;5113722;28;19931;-78
2022/03/08 04:18:45;;;;;;;;;;;-0.10;99.90;;;;;;5113593;28;19967;-78
2022/03/08 04:21:11;;;;;;;;;;;0.00;99.90;;;;;;5113159;28;20046;-78
2022/03/08 04:23:37;;;;;;;;;;;0.00;99.90;;;;;;5113306;28;19924;-78
2022/03/08 04:26:02;;;;;;;;;;;0.00;99.90;;;;;;5115055;27;19928;-77
2022/03/08 04:28:28;;;;;;;;;;;0.00;99.90;;;;;;5110490;28;19931;-76
2022/03/08 04:30:53;;;;;;;;;;;-0.10;99.90;;;;;;5138004;27;19923;-77
2022/03/08 04:33:19;;;;;;;;;;;-0.10;99.90;;;;;;5113588;28;19931;-77
2022/03/08 04:35:45;;;;;;;;;;;-0.10;99.90;;;;;;5113252;28;19949;-77
2022/03/08 04:38:10;;;;;;;;;;;-0.10;99.90;;;;;;5130531;27;20015;-78
2022/03/08 04:40:36;;;;;;;;;;;-0.20;99.90;;;;;;5113100;28;20292;-77
2022/03/08 04:43:02;;;;;;;;;;;-0.10;99.90;;;;;;5112970;28;19924;-77
2022/03/08 04:45:28;;;;;;;;;;;-0.10;99.90;;;;;;5113375;28;19923;-78
2022/03/08 04:47:53;;;;;;;;;;;-0.20;99.90;;;;;;5130273;27;20367;-77
2022/03/08 04:50:19;;;;;;;;;;;-0.20;99.90;;;;;;5130479;27;20391;-77
2022/03/08 04:52:46;;;;;;;;;;;-0.20;99.90;;;;;;5113528;28;19924;-77
2022/03/08 04:55:12;;;;;;;;;;;-0.20;99.90;;;;;;5113505;27;19924;-77
2022/03/08 04:57:37;;;;;;;;;;;-0.20;99.90;;;;;;5096303;28;19930;-78
2022/03/08 05:00:04;;;;;;;;;;;-0.30;99.90;;;;;;5109033;27;19923;-80
2022/03/08 05:02:30;;;;;;;;;;;-0.20;99.90;;;;;;5122519;27;19927;-77
2022/03/08 05:04:56;;;;;;;;;;;-0.30;99.90;;;;;;5111728;28;19923;-77
2022/03/08 05:07:22;;;;;;;;;;;-0.20;99.90;;;;;;5113072;28;19976;-77
2022/03/08 05:09:47;;;;;;;;;;;-0.30;99.90;;;;;;5095996;28;19924;-78
2022/03/08 05:12:13;;;;;;;;;;;-0.30;99.90;;;;;;5079282;28;19931;-77
2022/03/08 05:14:39;;;;;;;;;;;-0.30;99.90;;;;;;5129962;28;20364;-77
2022/03/08 05:17:04;;;;;;;;;;;-0.30;99.90;;;;;;5129713;28;19985;-77
2022/03/08 05:19:30;;;;;;;;;;;-0.30;99.90;;;;;;5079254;28;19931;-77
2022/03/08 05:21:56;;;;;;;;;;;-0.30;99.90;;;;;;5109069;28;20370;-77
2022/03/08 05:24:21;;;;;;;;;;;-0.40;99.90;;;;;;5133775;28;20350;-77
2022/03/08 05:26:47;;;;;;;;;;;-0.40;99.90;;;;;;5109571;28;20081;-79
2022/03/08 05:29:13;;;;;;;;;;;-0.40;99.90;;;;;;5114937;28;19935;-77
2022/03/08 05:31:38;;;;;;;;;;;-0.40;99.90;;;;;;5095860;28;19951;-77
2022/03/08 05:34:04;;;;;;;;;;;-0.40;99.90;;;;;;5112579;28;20018;-77
2022/03/08 05:36:29;;;;;;;;;;;-0.40;99.90;;;;;;5112732;28;19967;-77
2022/03/08 05:38:55;;;;;;;;;;;-0.40;99.90;;;;;;5104675;28;20363;-77
2022/03/08 05:41:21;;;;;;;;;;;-0.40;99.90;;;;;;5112049;28;20390;-78
2022/03/08 05:43:46;;;;;;;;;;;-0.40;99.90;;;;;;5122027;27;19933;-78
2022/03/08 05:46:12;;;;;;;;;;;-0.40;99.90;;;;;;5116797;27;19924;-77
2022/03/08 05:48:38;;;;;;;;;;;-0.30;99.90;;;;;;5099489;28;19923;-78
2022/03/08 05:51:03;;;;;;;;;;;-0.40;99.90;;;;;;5124798;27;19924;-84
2022/03/08 05:53:29;;;;;;;;;;;-0.40;99.90;;;;;;5116417;28;19924;-77
2022/03/08 05:55:55;;;;;;;;;;;-0.30;99.90;;;;;;5098301;28;19924;-78
2022/03/08 05:58:20;;;;;;;;;;;-0.30;99.90;;;;;;5116037;27;19932;-79
2022/03/08 06:00:46;;;;;;;;;;;-0.20;99.90;;;;;;5116376;28;19971;-80
2022/03/08 06:03:11;;;;;;;;;;;-0.30;99.90;;;;;;5101209;27;20408;-78
2022/03/08 06:05:37;;;;;;;;;;;-0.20;99.90;;;;;;5101673;28;19924;-78
2022/03/08 06:08:03;;;;;;;;;;;-0.20;99.90;;;;;;5115844;28;20386;-77
2022/03/08 06:10:29;;;;;;;;;;;-0.20;99.90;;;;;;5135416;27;19969;-77
2022/03/08 06:12:54;;;;;;;;;;;-0.10;99.90;;;;;;5118322;27;19930;-78
2022/03/08 06:15:20;;;;;;;;;;;-0.20;99.90;;;;;;5116902;27;20016;-77
2022/03/08 06:17:46;;;;;;;;;;;-0.20;99.90;;;;;;5114341;27;19958;-78
2022/03/08 06:20:11;;;;;;;;;;;-0.20;99.90;;;;;;5115178;28;19939;-77
2022/03/08 06:22:37;;;;;;;;;;;-0.20;99.90;;;;;;5115372;28;19924;-77
2022/03/08 06:25:03;;;;;;;;;;;-0.10;99.90;;;;;;5119789;27;19979;-77
2022/03/08 06:27:29;;;;;;;;;;;-0.20;99.90;;;;;;5115677;28;19974;-77
2022/03/08 06:29:55;;;;;;;;;;;-0.20;99.90;;;;;;5115254;28;19924;-78
2022/03/08 06:32:21;;;;;;;;;;;-0.20;99.90;;;;;;5116120;28;19989;-78
2022/03/08 06:34:47;;;;;;;;;;;-0.20;99.90;;;;;;5121510;27;19931;-77
2022/03/08 06:37:12;;;;;;;;;;;-0.20;99.90;;;;;;5124011;27;19927;-78
2022/03/08 06:39:38;;;;;;;;;;;-0.20;99.90;;;;;;5123277;27;19935;-78
2022/03/08 06:42:04;;;;;;;;;;;-0.20;99.90;;;;;;5132468;27;19930;-77
2022/03/08 06:44:31;;;;;;;;;;;-0.10;99.90;;;;;;5115725;28;19924;-77
2022/03/08 06:46:57;;;;;;;;;;;-0.10;99.90;;;;;;5127277;27;19931;-78
2022/03/08 06:49:23;;;;;;;;;;;-0.10;99.90;;;;;;5132226;27;19928;-77
2022/03/08 06:51:49;;;;;;;;;;;-0.10;99.90;;;;;;5098479;28;19924;-77
2022/03/08 06:54:14;;;;;;;;;;;0.00;99.90;;;;;;5096536;28;19924;-77
2022/03/08 06:56:40;;;;;;;;;;;0.00;99.90;;;;;;5113968;27;19923;-77
2022/03/08 06:59:06;;;;;;;;;;;0.00;99.90;;;;;;5130144;27;19927;-78
2022/03/08 07:01:31;;;;;;;;;;;0.10;99.90;;;;;;5091802;27;20060;-77
2022/03/08 07:03:57;;;;;;;;;;;0.10;99.90;;;;;;5097400;28;19968;-78
2022/03/08 07:06:23;;;;;;;;;;;0.10;99.90;;;;;;5096588;28;19928;-76
2022/03/08 07:08:48;;;;;;;;;;;0.20;99.90;;;;;;5115172;28;20357;-78
2022/03/08 07:11:14;;;;;;;;;;;0.20;99.90;;;;;;5110646;27;20015;-77
2022/03/08 07:13:39;;;;;;;;;;;0.30;99.90;;;;;;5082925;28;19989;-77
2022/03/08 07:16:05;;;;;;;;;;;0.40;99.90;;;;;;5112927;28;19999;-77
2022/03/08 07:18:31;;;;;;;;;;;0.40;99.90;;;;;;5105258;27;19976;-76
2022/03/08 07:20:56;;;;;;;;;;;0.50;99.90;;;;;;5106233;28;19924;-77
2022/03/08 07:23:22;;;;;;;;;;;0.50;99.90;;;;;;5115124;28;19924;-77
2022/03/08 07:25:48;;;;;;;;;;;0.60;99.90;;;;;;5149270;27;19931;-78
2022/03/08 07:28:13;;;;;;;;;;;0.70;99.90;;;;;;5097672;28;19982;-77
2022/03/08 07:30:39;;;;;;;;;;;0.70;99.90;;;;;;5114690;28;19924;-77
2022/03/08 07:33:04;;;;;;;;;;;0.90;99.90;;;;;;5114948;28;19923;-77
2022/03/08 07:35:30;;;;;;;;;;;0.90;99.90;;;;;;5114352;28;19924;-77
2022/03/08 07:37:55;;;;;;;;;;;1.00;99.90;;;;;;5114463;28;19923;-78
2022/03/08 07:40:21;;;;;;;;;;;1.00;99.90;;;;;;5114777;28;20010;-77
2022/03/08 07:42:47;;;;;;;;;;;1.20;99.90;;;;;;5116161;27;19931;-79
2022/03/08 07:45:12;;;;;;;;;;;1.40;99.90;;;;;;5080143;28;20391;-77
2022/03/08 07:47:38;;;;;;;;;;;1.40;99.90;;;;;;5114537;28;19935;-77
2022/03/08 07:50:05;;;;;;;;;;;1.40;99.90;;;;;;5113544;28;20287;-77
2022/03/08 07:52:31;;;;;;;;;;;1.60;99.90;;;;;;5114455;28;19931;-77
2022/03/08 07:54:56;;;;;;;;;;;1.70;99.90;;;;;;5113589;28;19923;-79
2022/03/08 07:57:22;;;;;;;;;;;1.80;99.90;;;;;;5115223;27;19924;-77
2022/03/08 07:59:47;;;;;;;;;;;1.80;99.90;;;;;;5148499;27;19971;-77
2022/03/08 08:02:13;;;;;;;;;;;1.90;99.90;;;;;;5097178;28;19924;-77
2022/03/08 08:04:38;;;;;;;;;;;2.00;99.90;;;;;;5096918;28;20019;-78
2022/03/08 08:07:05;;;;;;;;;;;2.10;99.90;;;;;;5132240;27;19938;-78
2022/03/08 08:09:30;;;;;;;;;;;2.10;99.90;;;;;;5085148;28;19924;-77
2022/03/08 08:11:56;;;;;;;;;;;2.20;99.90;;;;;;5093399;28;19931;-77
2022/03/08 08:14:21;;;;;;;;;;;2.30;99.90;;;;;;5109894;28;19990;-77
2022/03/08 08:16:47;;;;;;;;;;;2.40;99.90;;;;;;5093955;28;19931;-78
2022/03/08 08:19:12;;;;;;;;;;;2.50;99.90;;;;;;5107092;27;19928;-77
2022/03/08 08:21:38;;;;;;;;;;;2.60;99.90;;;;;;5147580;27;19981;-77
2022/03/08 08:24:04;;;;;;;;;;;2.60;99.90;;;;;;5130091;27;19927;-77
2022/03/08 08:26:30;;;;;;;;;;;2.70;99.90;;;;;;5112422;28;20403;-77
2022/03/08 08:28:55;;;;;;;;;;;2.80;99.90;;;;;;5130564;27;19924;-78
2022/03/08 08:31:23;;;;;;;;;;;3.00;99.90;;;;;;5113354;28;19961;-77
2022/03/08 08:33:49;;;;;;;;;;;3.00;99.90;;;;;;5131770;27;19923;-77
2022/03/08 08:36:15;;;;;;;;;;;3.20;99.90;;;;;;5130737;27;19923;-77
2022/03/08 08:38:41;;;;;;;;;;;3.30;99.90;;;;;;5134238;27;19924;-77
2022/03/08 08:41:06;;;;;;;;;;;3.30;99.90;;;;;;5152090;27;19935;-77
2022/03/08 08:43:32;;;;;;;;;;;3.50;99.90;;;;;;5147707;27;19946;-77
2022/03/08 08:45:57;;;;;;;;;;;3.50;99.90;;;;;;5148923;27;19963;-77
2022/03/08 08:48:23;;;;;;;;;;;3.70;99.90;;;;;;5096179;28;19930;-77
2022/03/08 08:50:49;;;;;;;;;;;3.80;99.90;;;;;;5088947;28;19923;-83
2022/03/08 08:53:14;;;;;;;;;;;3.90;99.90;;;;;;5117791;27;19931;-77
2022/03/08 08:55:40;;;;;;;;;;;4.00;99.90;;;;;;5146978;27;19989;-77
2022/03/08 08:58:06;;;;;;;;;;;4.10;99.90;;;;;;5166485;27;19932;-78
2022/03/08 09:00:32;;;;;;;;;;;4.30;99.90;;;;;;5129472;27;19978;-78
2022/03/08 09:02:57;;;;;;;;;;;4.40;99.90;;;;;;5112983;28;19923;-78
2022/03/08 09:05:23;;;;;;;;;;;4.50;99.90;;;;;;5146853;27;20015;-78
2022/03/08 09:07:49;;;;;;;;;;;4.60;99.90;;;;;;5112960;28;19959;-78
2022/03/08 09:10:15;;;;;;;;;;;4.70;99.90;;;;;;5112157;28;19967;-78
2022/03/08 09:12:43;;;;;;;;;;;4.80;99.90;;;;;;5075183;28;20008;-76
2022/03/08 09:15:09;;;;;;;;;;;4.90;99.90;;;;;;5110622;28;20321;-78
2022/03/08 09:17:37;;;;;;;;;;;5.00;99.90;;;;;;5112509;28;19924;-78
2022/03/08 09:20:03;;;;;;;;;;;5.10;99.90;;;;;;5100027;28;19930;-78
2022/03/08 09:22:29;;;;;;;;;;;5.20;99.90;;;;;;5133115;28;19952;-78
2022/03/08 09:24:55;;;;;;;;;;;5.30;99.90;;;;;;5116023;28;19923;-76
2022/03/08 09:27:20;;;;;;;;;;;5.30;99.90;;;;;;5126417;28;19923;-77
2022/03/08 09:29:46;;;;;;;;;;;5.40;99.90;;;;;;5147085;27;19931;-79
2022/03/08 09:32:12;;;;;;;;;;;5.50;99.90;;;;;;5114499;28;19993;-78
2022/03/08 09:34:39;;;;;;;;;;;5.50;99.90;;;;;;5129315;28;19924;-77
2022/03/08 09:37:06;;;;;;;;;;;5.60;99.90;;;;;;5112477;28;19924;-78
2022/03/08 09:39:32;;;;;;;;;;;5.70;99.90;;;;;;5095531;28;20244;-78
2022/03/08 09:41:58;;;;;;;;;;;5.80;99.90;;;;;;5076218;28;19974;-77
2022/03/08 09:44:24;;;;;;;;;;;6.00;99.90;;;;;;5093125;28;19973;-78
2022/03/08 09:46:49;;;;;;;;;;;6.00;99.90;;;;;;5092283;28;19928;-80
2022/03/08 09:49:15;;;;;;;;;;;6.00;99.90;;;;;;5102838;28;19924;-78
2022/03/08 09:51:40;;;;;;;;;;;6.30;99.90;;;;;;5132873;27;19928;-78
2022/03/08 09:54:06;;;;;;;;;;;6.40;99.90;;;;;;5101783;28;19934;-78
2022/03/08 09:56:32;;;;;;;;;;;6.40;99.90;;;;;;5117173;28;19928;-78
2022/03/08 09:58:59;;;;;;;;;;;6.50;99.90;;;;;;5109122;28;20010;-79
2022/03/08 10:01:25;;;;;;;;;;;6.70;99.90;;;;;;5095149;28;20332;-81
2022/03/08 10:03:51;;;;;;;;;;;6.80;99.90;;;;;;5110107;28;20013;-79
2022/03/08 10:06:17;;;;;;;;;;;6.80;99.90;;;;;;5146444;27;19924;-79
2022/03/08 10:08:42;;;;;;;;;;;7.00;99.90;;;;;;5094712;28;19933;-79
2022/03/08 10:11:11;;;;;;;;;;;7.00;99.90;;;;;;5110184;28;19923;-79
2022/03/08 10:13:41;;;;;;;;;;;7.10;99.90;;;;;;5110781;28;19924;-81
2022/03/08 10:16:08;;;;;;;;;;;7.20;99.90;;;;;;5113597;28;20543;-79
2022/03/08 10:18:35;;;;;;;;;;;7.30;99.90;;;;;;5127760;28;20351;-79
2022/03/08 10:21:01;;;;;;;;;;;7.40;99.90;;;;;;5112441;28;19924;-79
2022/03/08 10:23:26;;;;;;;;;;;7.40;99.90;;;;;;5129497;27;19928;-79
2022/03/08 10:25:52;;;;;;;;;;;7.50;99.90;;;;;;5103860;28;20271;-79
2022/03/08 10:28:17;;;;;;;;;;;7.70;99.90;;;;;;5138144;27;19919;-79
2022/03/08 10:30:43;;;;;;;;;;;7.80;99.90;;;;;;5093765;28;19927;-81
2022/03/08 10:33:09;;;;;;;;;;;7.90;99.90;;;;;;5137774;27;19956;-81
2022/03/08 10:35:38;;;;;;;;;;;7.80;99.90;;;;;;5110647;27;19924;-78
2022/03/08 10:38:08;;;;;;;;;;;7.90;99.90;;;;;;5113117;28;19932;-78
2022/03/08 10:40:34;;;;;;;;;;;7.90;98.70;;;;;;5115647;28;20312;-79
2022/03/08 10:43:01;;;;;;;;;;;8.00;99.30;;;;;;5115284;28;19924;-79
2022/03/08 10:45:28;;;;;;;;;;;8.10;99.90;;;;;;5112198;28;19931;-79
2022/03/08 10:47:54;;;;;;;;;;;8.20;99.10;;;;;;5114608;27;20366;-81
2022/03/08 10:50:20;;;;;;;;;;;8.30;98.20;;;;;;5114739;28;19959;-79
2022/03/08 10:52:47;;;;;;;;;;;8.50;98.30;;;;;;5114618;28;19931;-80
2022/03/08 10:55:24;;;;;;;;;;;8.40;96.40;;;;;;5095652;28;19935;-86
2022/03/08 10:57:53;;;;;;;;;;;8.40;94.30;;;;;;5113946;27;19924;-81
2022/03/08 11:00:20;;;;;;;;;;;8.60;96.50;;;;;;5111427;28;19997;-82
2022/03/08 11:02:55;;;;;;;;;;;8.70;97.30;;;;;;5098737;28;20275;-80
2022/03/08 11:05:22;;;;;;;;;;;8.80;96.60;;;;;;5115186;28;19973;-80
2022/03/08 11:07:47;;;;;;;;;;;8.90;97.30;;;;;;5114978;28;19924;-81
2022/03/08 11:10:14;;;;;;;;;;;9.10;96.30;;;;;;5089295;28;20371;-81
2022/03/08 11:12:40;;;;;;;;;;;9.20;97.10;;;;;;5107889;28;20002;-81
2022/03/08 11:15:06;;;;;;;;;;;9.30;97.60;;;;;;5111220;28;19924;-80
2022/03/08 11:17:33;;;;;;;;;;;9.50;96.30;;;;;;5104140;28;19950;-81
2022/03/08 11:19:59;;;;;;;;;;;9.40;93.70;;;;;;5112601;28;20299;-82
2022/03/08 11:22:24;;;;;;;;;;;9.50;94.90;;;;;;5097808;28;19924;-80
2022/03/08 11:24:52;;;;;;;;;;;9.60;94.00;;;;;;5087307;28;19923;-81
2022/03/08 11:27:17;;;;;;;;;;;9.70;94.60;;;;;;5110250;28;19930;-82
2022/03/08 11:29:43;;;;;;;;;;;10.00;95.60;;;;;;5108059;28;19928;-81
2022/03/08 11:32:14;;;;;;;;;;;9.90;93.30;;;;;;5107075;28;19953;-81
2022/03/08 11:34:44;;;;;;;;;;;10.00;93.20;;;;;;5112500;27;19972;-81
2022/03/08 11:37:13;;;;;;;;;;;10.20;93.00;;;;;;5108239;28;20256;-81
2022/03/08 11:39:43;;;;;;;;;;;10.40;92.10;;;;;;5110404;28;20394;-82
2022/03/08 11:42:18;;;;;;;;;;;10.50;92.00;;;;;;5105184;28;19973;-81
2022/03/08 11:44:56;;;;;;;;;;;10.50;89.50;;;;;;5128753;27;20558;-82
2022/03/08 11:47:21;;;;;;;;;;;10.50;88.40;;;;;;5103895;28;19930;-81
2022/03/08 11:49:51;;;;;;;;;;;10.80;89.80;;;;;;5131532;27;19924;-81
2022/03/08 11:52:19;;;;;;;;;;;10.90;89.40;;;;;;5131010;27;19950;-80
2022/03/08 11:54:52;;;;;;;;;;;11.00;88.70;;;;;;5118943;27;20337;-80
2022/03/08 11:57:37;;;;;;;;;;;11.10;85.40;;;;;;5152093;27;19923;-78
2022/03/08 12:00:15;;;;;;;;;;;11.20;86.40;;;;;;5134685;27;19973;-79
2022/03/08 12:02:45;;;;;;;;;;;11.20;83.60;;;;;;5134392;27;20295;-79
2022/03/08 12:05:33;;;;;;;;;;;11.30;86.30;;;;;;5129651;27;19938;-88
2022/03/08 12:08:19;;;;;;;;;;;11.50;83.30;;;;;;5113632;28;19923;-80
2022/03/08 12:10:45;;;;;;;;;;;11.60;83.60;;;;;;5113795;28;19927;-80
2022/03/08 12:13:11;;;;;;;;;;;11.90;84.40;;;;;;5114011;28;19924;-80
2022/03/08 12:15:56;;;;;;;;;;;11.80;83.10;;;;;;5096461;28;20265;-80
2022/03/08 12:18:32;;;;;;;;;;;11.60;76.50;;;;;;5113373;28;20493;-80
2022/03/08 12:21:24;;;;;;;;;;;11.70;77.70;;;;;;5113937;28;19992;-80
2022/03/08 12:24:02;;;;;;;;;;;11.70;79.60;;;;;;5126558;27;19923;-79
2022/03/08 12:26:29;;;;;;;;;;;11.60;77.00;;;;;;5133852;27;19923;-79
2022/03/08 12:29:07;;;;;;;;;;;11.60;77.50;;;;;;5121333;27;19923;-79
2022/03/08 12:31:51;;;;;;;;;;;11.60;75.40;;;;;;5115824;27;19924;-79
2022/03/08 12:34:17;;;;;;;;;;;11.70;76.80;;;;;;5127034;27;19924;-81
2022/03/08 12:37:00;;;;;;;;;;;11.70;74.00;;;;;;5100898;28;19928;-80
2022/03/08 12:39:45;;;;;;;;;;;11.80;75.50;;;;;;5113087;28;19924;-80
2022/03/08 12:42:16;;;;;;;;;;;11.90;75.20;;;;;;5113979;27;19969;-79
2022/03/08 12:44:56;;;;;;;;;;;11.80;72.60;;;;;;5145173;27;20283;-79
2022/03/08 12:47:22;;;;;;;;;;;11.70;73.40;;;;;;5100530;28;19923;-79
2022/03/08 12:49:49;;;;;;;;;;;11.70;74.80;;;;;;5113122;28;19923;-79
2022/03/08 12:52:15;;;;;;;;;;;12.10;78.10;;;;;;5095617;28;19931;-78
2022/03/08 12:54:42;;;;;;;;;;;12.10;76.40;;;;;;5113713;28;19963;-79
2022/03/08 12:57:11;;;;;;;;;;;12.20;78.00;;;;;;5113483;28;20267;-77
2022/03/08 12:59:43;;;;;;;;;;;12.10;76.50;;;;;;5112971;28;19930;-78
2022/03/08 13:02:09;;;;;;;;;;;12.20;77.00;;;;;;5112588;28;20027;-80
2022/03/08 13:04:34;;;;;;;;;;;12.10;75.50;;;;;;5112689;28;19924;-78
2022/03/08 13:07:10;;;;;;;;;;;11.90;74.50;;;;;;5095827;28;20025;-77
2022/03/08 13:09:49;;;;;;;;;;;11.80;72.00;;;;;;5095383;28;19924;-77
2022/03/08 13:12:16;;;;;;;;;;;11.70;71.30;;;;;;5147678;27;19963;-77
2022/03/08 13:14:42;;;;;;;;;;;11.60;73.40;;;;;;5129811;27;19924;-76
2022/03/08 13:17:07;;;;;;;;;;;11.60;74.20;;;;;;5146846;27;19952;-79
2022/03/08 13:19:37;;;;;;;;;;;11.60;72.30;;;;;;5123421;28;19934;-77
2022/03/08 13:22:03;;;;;;;;;;;11.50;71.50;;;;;;5133526;28;19927;-77
2022/03/08 13:24:28;;;;;;;;;;;11.40;72.20;;;;;;5115837;28;19934;-78
2022/03/08 13:27:02;;;;;;;;;;;11.40;75.50;;;;;;5116167;28;19930;-78
2022/03/08 13:29:28;;;;;;;;;;;11.50;74.40;;;;;;5131074;27;20274;-82
2022/03/08 13:31:54;;;;;;;;;;;11.80;74.60;;;;;;5128576;28;19923;-77
2022/03/08 13:34:19;;;;;;;;;;;12.00;70.40;;;;;;5131441;28;20326;-81
2022/03/08 13:36:55;;;;;;;;;;;11.80;71.50;;;;;;5150061;27;19964;-77
2022/03/08 13:39:21;;;;;;;;;;;11.70;69.60;;;;;;5099075;28;19920;-78
2022/03/08 13:41:46;;;;;;;;;;;11.80;70.60;;;;;;5092814;28;19942;-83
2022/03/08 13:44:14;;;;;;;;;;;11.80;68.10;;;;;;5100650;28;19965;-78
2022/03/08 13:46:40;;;;;;;;;;;11.90;69.90;;;;;;5112077;28;20033;-78
2022/03/08 13:49:10;;;;;;;;;;;12.10;69.50;;;;;;5112133;28;20407;-79
2022/03/08 13:51:37;;;;;;;;;;;12.30;66.80;;;;;;5112025;28;19971;-79
2022/03/08 13:54:06;;;;;;;;;;;12.50;67.00;;;;;;5111378;28;19977;-79
2022/03/08 13:56:48;;;;;;;;;;;12.90;66.10;;;;;;5111711;28;19924;-79
2022/03/08 13:59:25;;;;;;;;;;;13.10;68.00;;;;;;5112131;28;19932;-80
2022/03/08 14:02:02;;;;;;;;;;;13.60;65.80;;;;;;5111773;28;20030;-78
2022/03/08 14:04:28;;;;;;;;;;;13.90;63.30;;;;;;5131722;27;19924;-78
2022/03/08 14:06:54;;;;;;;;;;;14.40;64.00;;;;;;5115769;28;19938;-78
2022/03/08 14:09:20;;;;;;;;;;;14.70;61.10;;;;;;5116389;28;19994;-78
2022/03/08 14:11:53;;;;;;;;;;;14.40;59.70;;;;;;5116136;28;19923;-80
2022/03/08 14:14:20;;;;;;;;;;;14.50;61.80;;;;;;5094033;28;19942;-78
2022/03/08 14:16:47;;;;;;;;;;;14.70;59.30;;;;;;5117582;27;19931;-77
2022/03/08 14:19:15;;;;;;;;;;;14.90;60.60;;;;;;5116362;28;19924;-77
2022/03/08 14:21:41;;;;;;;;;;;15.30;60.00;;;;;;5115859;28;20006;-77
2022/03/08 14:24:24;;;;;;;;;;;15.60;58.50;;;;;;5116074;28;19923;-79